Time;durP1;ratioP1;P1;durP2;ratioP2;P2;SDS_P1;SDS_P2;PMS_P1;PMS_P2;Temp;Humidity;BMP_temperature;BMP_pressure;BME280_temperature;BME280_humidity;BME280_pressure;Samples;Min_cycle;Max_cycle;Signal;HPM_P1;HPM_P2
2022/04/21 00:01:09;;;;;;;2.08;1.70;;;;;;;12.54;80.23;99962.47;6223221;23;20078;-60
2022/04/21 00:03:53;;;;;;;3.53;1.70;;;;;;;12.58;80.11;99963.31;6224305;23;20082;-60
2022/04/21 00:06:38;;;;;;;2.70;1.70;;;;;;;12.59;80.46;99965.03;6214207;23;20086;-60
2022/04/21 00:09:23;;;;;;;3.35;1.60;;;;;;;12.44;80.15;99947.69;6201646;23;20032;-60
2022/04/21 00:12:08;;;;;;;3.13;1.67;;;;;;;12.41;80.83;99946.88;6224235;23;20031;-59
2022/04/21 00:14:53;;;;;;;3.53;1.70;;;;;;;12.27;81.28;99925.91;6201763;23;20486;-61
2022/04/21 00:17:37;;;;;;;2.85;1.88;;;;;;;12.29;81.18;99936.53;6214224;23;20035;-61
2022/04/21 00:20:22;;;;;;;5.10;1.80;;;;;;;12.42;81.58;99969.91;6223904;23;20079;-62
2022/04/21 00:26:12;;;;;;;4.47;2.03;;;;;;;12.37;82.30;99954.06;6191713;23;20406;-61
2022/04/21 00:28:56;;;;;;;3.88;1.90;;;;;;;12.25;82.63;99937.50;6191733;23;20524;-60
2022/04/21 00:31:41;;;;;;;2.72;1.85;;;;;;;12.36;83.07;99968.28;6214246;23;20031;-60
2022/04/21 00:34:26;;;;;;;5.03;2.45;;;;;;;12.23;82.98;99942.00;6224114;23;20196;-60
2022/04/21 00:37:11;;;;;;;3.88;2.17;;;;;;;12.32;83.41;99966.59;6224273;23;20147;-59
2022/04/21 00:39:56;;;;;;;3.65;2.50;;;;;;;12.36;84.34;99964.72;6191590;23;20032;-60
2022/04/21 00:42:41;;;;;;;3.92;2.72;;;;;;;12.16;83.83;99941.28;6201580;23;20516;-60
2022/04/21 00:45:28;;;;;;;4.60;2.50;;;;;;;12.31;83.91;99964.81;6224363;23;20199;-60
2022/04/21 00:48:13;;;;;;;3.80;2.50;;;;;;;12.21;84.88;99967.75;6192282;23;20090;-61
2022/04/21 00:50:57;;;;;;;4.03;2.70;;;;;;;12.21;86.19;99958.00;6224274;23;20036;-59
2022/04/21 00:53:43;;;;;;;3.13;2.75;;;;;;;11.98;86.16;99933.72;6224229;23;20028;-60
2022/04/21 00:56:29;;;;;;;5.00;3.05;;;;;;;12.22;86.47;99967.72;6201530;23;20035;-58
2022/04/21 00:59:13;;;;;;;3.85;2.60;;;;;;;12.09;86.47;99960.06;6224217;23;20071;-60
2022/04/21 01:05:02;;;;;;;3.80;2.78;;;;;;;12.20;86.90;99968.66;6224147;23;20367;-60
2022/04/21 01:07:47;;;;;;;2.88;2.28;;;;;;;12.19;87.27;99972.25;6213861;23;20569;-60
2022/04/21 01:10:34;;;;;;;4.28;2.15;;;;;;;12.03;87.76;99961.06;6224011;23;20035;-62
2022/04/21 01:13:19;;;;;;;3.58;2.00;;;;;;;12.13;88.24;99972.38;6222312;23;20044;-60
2022/04/21 01:16:05;;;;;;;2.63;1.92;;;;;;;12.06;89.43;99970.75;6187746;23;20344;-61
2022/04/21 01:18:52;;;;;;;5.93;1.77;;;;;;;12.04;89.04;99959.28;6191514;23;20043;-60
2022/04/21 01:21:36;;;;;;;2.45;1.73;;;;;;;12.04;89.41;99968.16;6201595;23;20124;-60
2022/04/21 01:24:20;;;;;;;3.50;1.60;;;;;;;12.04;90.62;99968.16;6224108;23;20091;-59
2022/04/21 01:27:05;;;;;;;3.72;1.40;;;;;;;11.94;90.52;99963.94;6223937;23;20063;-61
2022/04/21 01:29:50;;;;;;;4.03;1.40;;;;;;;11.74;91.30;99930.75;6224170;23;20075;-60
2022/04/21 01:32:38;;;;;;;4.70;1.50;;;;;;;11.97;91.44;99966.53;6193298;23;20099;-60
2022/04/21 01:35:23;;;;;;;3.67;1.50;;;;;;;12.03;92.06;99974.34;6225808;23;20082;-59
2022/04/21 01:41:11;;;;;;;3.60;1.45;;;;;;;12.08;91.51;99961.84;6225562;23;20476;-60
2022/04/21 01:43:55;;;;;;;2.97;1.52;;;;;;;12.09;91.81;99954.75;6225691;23;20027;-59
2022/04/21 01:46:40;;;;;;;2.22;1.30;;;;;;;12.04;92.08;99964.59;6225644;23;20362;-60
2022/04/21 01:49:25;;;;;;;2.17;1.10;;;;;;;12.09;92.75;99962.72;6203171;23;20034;-60
2022/04/21 01:52:09;;;;;;;2.20;1.02;;;;;;;12.02;93.17;99966.41;6225644;23;20031;-59
2022/04/21 01:54:53;;;;;;;2.60;1.08;;;;;;;11.86;93.44;99946.41;6225711;23;20059;-61
2022/04/21 01:57:38;;;;;;;2.22;1.30;;;;;;;11.89;94.91;99954.31;6226025;23;20036;-61
2022/04/21 02:00:24;;;;;;;2.63;1.20;;;;;;;11.92;94.58;99959.56;6171860;23;20051;-60
2022/04/21 02:03:08;;;;;;;6.43;1.05;;;;;;;11.74;94.96;99928.09;6225669;23;20031;-61
2022/04/21 02:05:52;;;;;;;2.97;1.15;;;;;;;11.94;96.15;99965.72;6225406;23;20359;-60
2022/04/21 02:08:37;;;;;;;1.88;1.08;;;;;;;11.86;96.50;99957.91;6225534;23;20043;-59
2022/04/21 02:11:21;;;;;;;1.73;1.10;;;;;;;11.82;97.04;99945.59;6224255;23;20370;-59
2022/04/21 02:14:06;;;;;;;4.55;1.30;;;;;;;11.85;98.47;99949.97;6203072;23;20023;-60
2022/04/21 02:16:50;;;;;;;2.67;1.20;;;;;;;11.62;98.72;99918.59;6218663;23;20143;-60
2022/04/21 02:19:34;;;;;;;1.45;0.98;;;;;;;11.61;100.00;99930.16;6217201;23;20517;-60
2022/04/21 02:22:19;;;;;;;2.70;1.33;;;;;;;11.75;100.00;99946.66;6217437;23;20120;-60
2022/04/21 02:25:06;;;;;;;2.38;1.15;;;;;;;11.81;100.00;99953.63;6207574;23;20062;-61
2022/04/21 02:27:50;;;;;;;2.38;1.15;;;;;;;11.64;100.00;99915.94;6215458;23;20241;-63
2022/04/21 02:30:35;;;;;;;2.70;1.08;;;;;;;11.79;100.00;99950.97;6209108;23;20109;-59
2022/04/21 02:33:20;;;;;;;3.30;1.08;;;;;;;11.83;100.00;99943.84;6207786;23;20059;-60
2022/04/21 02:36:05;;;;;;;2.67;1.02;;;;;;;11.80;100.00;99949.22;6217159;23;20027;-61
2022/04/21 02:38:49;;;;;;;4.15;1.20;;;;;;;11.83;100.00;99954.47;6218287;23;20677;-60
2022/04/21 02:41:33;;;;;;;2.13;1.15;;;;;;;11.85;100.00;99942.88;6218082;23;20031;-61
2022/04/21 02:44:18;;;;;;;5.45;1.00;;;;;;;11.79;100.00;99937.69;6218693;23;20032;-60
2022/04/21 02:47:05;;;;;;;2.92;1.10;;;;;;;11.79;100.00;99955.44;6218801;23;20074;-61
2022/04/21 02:49:51;;;;;;;3.15;1.17;;;;;;;11.65;100.00;99941.56;6196240;23;20035;-63
2022/04/21 02:52:37;;;;;;;4.65;1.52;;;;;;;11.62;100.00;99950.47;6215781;23;20567;-60
2022/04/21 02:58:25;;;;;;;3.42;1.20;;;;;;;11.62;100.00;99954.91;6218277;23;20339;-61
2022/04/21 03:01:09;;;;;;;3.83;1.30;;;;;;;11.57;100.00;99964.72;6215916;23;20505;-67
2022/04/21 03:03:56;;;;;;;2.33;1.00;;;;;;;11.55;100.00;99945.31;6218431;23;20078;-61
2022/04/21 03:06:41;;;;;;;1.92;1.05;;;;;;;11.40;100.00;99933.19;6167102;23;20105;-60
2022/04/21 03:09:25;;;;;;;2.28;0.90;;;;;;;11.34;100.00;99941.31;6220184;23;20051;-60
2022/04/21 03:12:10;;;;;;;3.08;1.00;;;;;;;11.48;100.00;99965.78;6220100;23;20079;-59
2022/04/21 03:14:55;;;;;;;2.55;1.02;;;;;;;11.50;100.00;99969.28;6222643;23;20081;-61
2022/04/21 03:17:41;;;;;;;4.13;1.10;;;;;;;11.52;100.00;99974.56;6221515;23;20055;-63
2022/04/21 03:26:31;;;;;;;3.22;1.10;;;;;;;11.28;100.00;99952.03;6218338;23;20143;-63
2022/04/21 03:29:17;;;;;;;2.92;1.20;;;;;;;11.54;100.00;99978.06;6217988;23;20051;-59
2022/04/21 03:32:01;;;;;;;3.67;1.20;;;;;;;11.55;100.00;99978.03;6194161;23;20059;-64
2022/04/21 03:34:46;;;;;;;3.35;0.90;;;;;;;11.54;100.00;99988.69;6220799;23;20051;-59
2022/04/21 03:37:30;;;;;;;2.17;0.98;;;;;;;11.36;100.00;99962.53;6195256;23;20102;-60
2022/04/21 03:40:15;;;;;;;3.42;1.10;;;;;;;11.60;100.00;99991.22;6220148;23;20031;-62
2022/04/21 03:42:59;;;;;;;3.78;1.10;;;;;;;11.60;100.00;99993.88;6188231;23;20095;-62
2022/04/21 03:45:43;;;;;;;5.85;1.00;;;;;;;11.64;100.00;99982.31;6218045;23;20031;-61
2022/04/21 03:48:29;;;;;;;2.13;1.05;;;;;;;11.47;100.00;99956.06;6195204;23;20115;-66
2022/04/21 03:51:15;;;;;;;3.58;1.10;;;;;;;11.61;100.00;99982.38;6183774;23;20081;-68
2022/04/21 03:54:00;;;;;;;2.22;1.20;;;;;;;11.66;100.00;99983.16;6216525;23;20031;-61
2022/04/21 03:56:44;;;;;;;2.92;1.10;;;;;;;11.63;100.00;99983.25;6215837;23;20043;-60
2022/04/21 03:59:29;;;;;;;2.75;1.00;;;;;;;11.59;100.00;99990.34;6208234;23;20067;-60
2022/04/21 04:02:13;;;;;;;2.40;1.08;;;;;;;11.50;100.00;99976.38;6196992;23;20448;-61
2022/04/21 04:05:01;;;;;;;2.60;1.23;;;;;;;11.55;100.00;99971.88;6209328;23;20031;-61
2022/04/21 04:10:52;;;;;;;2.17;1.05;;;;;;;11.41;100.00;99963.28;6186822;23;20125;-61
2022/04/21 04:13:36;;;;;;;1.95;1.30;;;;;;;11.42;100.00;99949.09;6187011;23;20303;-64
2022/04/21 04:16:21;;;;;;;4.00;1.20;;;;;;;11.44;100.00;99945.50;6165999;23;20023;-60
2022/04/21 04:19:10;;;;;;;6.20;1.20;;;;;;;11.49;100.00;99946.31;6207355;23;20372;-70
2022/04/21 04:21:55;;;;;;;3.13;0.90;;;;;;;11.47;100.00;99940.16;6196933;23;20367;-63
2022/04/21 04:24:39;;;;;;;2.03;1.20;;;;;;;11.41;100.00;99950.03;6216967;23;20031;-61
2022/04/21 04:27:24;;;;;;;4.68;1.10;;;;;;;11.47;100.00;99948.09;6197119;23;20147;-64
2022/04/21 04:30:09;;;;;;;2.15;1.20;;;;;;;11.46;100.00;99946.38;6196975;23;20097;-63
2022/04/21 04:32:53;;;;;;;11.20;1.20;;;;;;;11.35;100.00;99913.00;6219621;23;20418;-66
2022/04/21 04:35:38;;;;;;;2.97;1.23;;;;;;;11.55;100.00;99943.50;6219373;23;20063;-62
2022/04/21 04:38:22;;;;;;;4.70;1.10;;;;;;;11.45;100.00;99946.41;6184518;23;20027;-67
2022/04/21 04:44:10;;;;;;;1.80;1.13;;;;;;;11.37;100.00;99945.69;6223838;23;20030;-60
2022/04/21 04:46:55;;;;;;;5.03;1.20;;;;;;;11.35;100.00;99937.75;6223660;23;20038;-61
2022/04/21 04:49:42;;;;;;;3.33;1.05;;;;;;;11.39;100.00;99939.44;6190362;23;20032;-62
2022/04/21 04:52:26;;;;;;;5.68;1.20;;;;;;;11.30;100.00;99934.31;6169992;23;20055;-61
2022/04/21 04:55:11;;;;;;;5.47;1.00;;;;;;;11.25;100.00;99920.28;6213373;23;20415;-60
2022/04/21 04:57:56;;;;;;;4.82;1.30;;;;;;;11.22;100.00;99944.22;6223822;23;20031;-62
2022/04/21 05:00:40;;;;;;;3.47;1.20;;;;;;;11.22;100.00;99938.91;6213676;23;20071;-59
2022/04/21 05:03:25;;;;;;;6.50;1.45;;;;;;;11.11;100.00;99940.03;6224017;23;20147;-60
2022/04/21 05:06:09;;;;;;;14.43;1.60;;;;;;;11.05;100.00;99913.59;6202525;23;20031;-62
2022/04/21 05:08:56;;;;;;;12.50;1.73;;;;;;;11.27;100.00;99955.59;6193167;23;20031;-60
2022/04/21 05:11:42;;;;;;;5.15;1.38;;;;;;;11.27;100.00;99957.41;6215302;23;20028;-60
2022/04/21 05:14:27;;;;;;;9.32;1.60;;;;;;;11.28;100.00;99964.44;6214871;23;20027;-60
2022/04/21 05:17:11;;;;;;;6.75;1.42;;;;;;;11.29;100.00;99964.44;6202427;23;20089;-59
2022/04/21 05:19:56;;;;;;;5.22;1.35;;;;;;;11.11;100.00;99955.94;6224403;23;20492;-60
2022/04/21 05:22:45;;;;;;;4.07;1.55;;;;;;;11.28;100.00;100007.78;6191167;23;20028;-59
2022/04/21 05:25:31;;;;;;;2.30;1.42;;;;;;;11.10;100.00;100010.78;6192846;23;20023;-59
2022/04/21 05:28:16;;;;;;;3.92;1.20;;;;;;;11.17;100.00;100027.47;6181868;23;20066;-59
2022/04/21 05:31:02;;;;;;;3.97;1.10;;;;;;;11.08;100.00;100028.50;6192840;23;20031;-61
2022/04/21 05:33:47;;;;;;;1.95;1.10;;;;;;;11.10;100.00;100032.03;6215580;23;20031;-61
2022/04/21 05:36:32;;;;;;;3.30;1.10;;;;;;;11.02;100.00;100028.63;6225285;23;20098;-58
2022/04/21 05:39:17;;;;;;;3.28;1.25;;;;;;;10.97;100.00;100009.28;6203013;23;20031;-60
2022/04/21 05:42:02;;;;;;;1.75;1.25;;;;;;;11.20;100.00;100046.88;6202303;23;20042;-62
2022/04/21 05:44:47;;;;;;;2.75;1.38;;;;;;;11.13;100.00;100037.28;6215231;23;20103;-60
2022/04/21 05:47:32;;;;;;;1.90;1.10;;;;;;;11.20;100.00;100053.97;6192427;23;20032;-60
2022/04/21 05:50:17;;;;;;;5.50;1.30;;;;;;;11.08;100.00;100049.75;6214856;23;20359;-60
2022/04/21 05:53:03;;;;;;;1.80;1.10;;;;;;;11.12;100.00;100053.22;6181284;23;20027;-65
2022/04/21 05:55:49;;;;;;;3.45;1.20;;;;;;;11.05;100.00;100051.59;6171837;23;20427;-63
2022/04/21 05:58:42;;;;;;;1.90;1.25;;;;;;;11.07;100.00;100069.22;6204197;23;20028;-63
2022/04/21 06:01:44;;;;;;;4.32;1.13;;;;;;;10.92;100.00;100042.94;6224913;23;20032;-62
2022/04/21 06:04:28;;;;;;;2.35;1.15;;;;;;;11.03;100.00;100075.50;6225261;23;20032;-64
2022/04/21 06:07:13;;;;;;;2.78;1.30;;;;;;;11.11;100.00;100068.25;6171118;23;20078;-63
2022/04/21 06:09:58;;;;;;;3.55;1.20;;;;;;;11.18;100.00;100083.19;6224111;23;20036;-61
2022/04/21 06:12:43;;;;;;;2.63;1.25;;;;;;;11.20;100.00;100083.16;6215358;23;20043;-61
2022/04/21 06:15:28;;;;;;;2.67;1.40;;;;;;;11.20;100.00;100077.84;6191843;23;20428;-60
2022/04/21 06:18:12;;;;;;;1.65;1.20;;;;;;;11.08;100.00;100065.66;6202121;23;20094;-61
2022/04/21 06:20:56;;;;;;;2.95;1.30;;;;;;;11.20;100.00;100088.47;6214395;23;20517;-61
2022/04/21 06:23:41;;;;;;;3.38;1.20;;;;;;;11.17;100.00;100101.78;6181691;23;20312;-61
2022/04/21 06:26:26;;;;;;;4.82;1.42;;;;;;;11.09;100.00;100099.28;6201541;23;20489;-61
2022/04/21 06:29:10;;;;;;;3.33;1.17;;;;;;;11.11;100.00;100078.88;6225025;23;20067;-60
2022/04/21 06:31:54;;;;;;;2.13;1.15;;;;;;;11.29;100.00;100107.78;6224868;23;20038;-61
2022/04/21 06:34:39;;;;;;;3.97;1.40;;;;;;;11.31;100.00;100113.91;6201846;23;20493;-61
2022/04/21 06:37:23;;;;;;;4.47;2.13;;;;;;;11.38;100.00;100114.69;6224051;23;20027;-58
2022/04/21 06:40:08;;;;;;;2.60;1.48;;;;;;;11.25;100.00;100094.56;6214914;23;20431;-64
2022/04/21 06:42:55;;;;;;;3.33;1.70;;;;;;;11.38;100.00;100114.69;6171693;23;20162;-66
2022/04/21 06:48:42;;;;;;;3.63;1.80;;;;;;;11.34;100.00;100137.78;6192616;23;20028;-60
2022/04/21 06:51:27;;;;;;;4.63;2.10;;;;;;;11.32;100.00;100130.75;6215328;23;20031;-61
2022/04/21 06:54:11;;;;;;;4.93;2.63;;;;;;;10.99;100.00;100113.59;6223811;23;20047;-62
2022/04/21 06:56:56;;;;;;;6.93;2.42;;;;;;;11.06;100.00;100146.19;6226604;23;20330;-61
2022/04/21 06:59:40;;;;;;;8.05;2.58;;;;;;;11.09;100.00;100140.84;6224478;23;20031;-62
2022/04/21 07:02:31;;;;;;;4.78;2.00;;;;;;;11.24;100.00;100154.75;6229261;23;20139;-62
2022/04/21 07:05:16;;;;;;;4.60;1.90;;;;;;;11.07;100.00;100126.75;6228792;23;20047;-62
2022/04/21 07:08:01;;;;;;;3.83;2.20;;;;;;;11.24;100.00;100159.19;6226107;23;20453;-61
2022/04/21 07:10:45;;;;;;;5.30;2.20;;;;;;;11.17;100.00;100158.41;6225126;23;20039;-64
2022/04/21 07:13:30;;;;;;;4.30;1.90;;;;;;;11.01;100.00;100121.53;6213296;23;20027;-62
2022/04/21 07:16:15;;;;;;;4.55;2.03;;;;;;;11.20;100.00;100154.84;6224881;23;20481;-62
2022/04/21 07:18:59;;;;;;;5.35;2.10;;;;;;;11.25;100.00;100161.81;6224864;23;20031;-63
2022/04/21 07:21:44;;;;;;;6.75;2.58;;;;;;;11.38;100.00;100166.00;6192333;23;20093;-64
2022/04/21 07:24:28;;;;;;;5.72;2.17;;;;;;;11.28;100.00;100132.53;6171480;23;20418;-62
2022/04/21 07:27:14;;;;;;;7.03;1.92;;;;;;;11.28;100.00;100139.66;6192351;23;20078;-63
2022/04/21 07:30:00;;;;;;;3.65;1.80;;;;;;;11.28;100.00;100169.72;6214501;23;20116;-62
2022/04/21 07:32:45;;;;;;;3.67;1.70;;;;;;;11.05;100.00;100141.81;6191955;23;20070;-61
2022/04/21 07:35:29;;;;;;;5.30;1.50;;;;;;;11.19;100.00;100177.84;6214735;23;20063;-61
2022/04/21 07:38:13;;;;;;;3.17;1.90;;;;;;;11.14;100.00;100153.16;6223861;23;20370;-58
2022/04/21 07:40:58;;;;;;;3.22;1.55;;;;;;;11.34;100.00;100182.00;6224090;23;20031;-61
2022/04/21 07:43:44;;;;;;;3.00;1.38;;;;;;;11.41;100.00;100173.06;6200504;23;20047;-58
2022/04/21 07:46:28;;;;;;;2.72;1.40;;;;;;;11.22;100.00;100187.53;6191872;23;20108;-57
2022/04/21 07:55:27;;;;;;;3.75;1.35;;;;;;;10.92;100.00;100195.97;6224853;23;20054;-61
2022/04/21 07:58:13;;;;;;;2.75;1.75;;;;;;;10.85;100.00;100197.84;6224521;23;20035;-60
2022/04/21 08:00:58;;;;;;;2.88;1.45;;;;;;;10.77;100.00;100193.53;6225023;23;20032;-61
2022/04/21 08:03:43;;;;;;;3.45;1.80;;;;;;;10.88;100.00;100210.19;6192030;23;20063;-62
2022/04/21 08:06:28;;;;;;;3.78;1.42;;;;;;;10.89;100.00;100211.91;6201965;23;20027;-61
2022/04/21 08:09:14;;;;;;;2.95;1.55;;;;;;;10.88;100.00;100211.03;6200561;23;20031;-61
2022/04/21 08:11:58;;;;;;;3.60;1.80;;;;;;;10.82;100.00;100212.91;6224002;23;20481;-60
2022/04/21 08:14:43;;;;;;;4.28;1.70;;;;;;;10.87;100.00;100219.00;6214398;23;20063;-61
2022/04/21 08:17:28;;;;;;;3.35;1.50;;;;;;;10.90;100.00;100229.59;6224151;23;20031;-62
2022/04/21 08:20:13;;;;;;;2.60;1.80;;;;;;;10.93;100.00;100224.25;6223528;23;20031;-61
2022/04/21 08:22:57;;;;;;;3.78;1.70;;;;;;;10.94;100.00;100226.00;6224200;23;20031;-67
2022/04/21 08:35:09;;;;;;;2.45;1.35;;;;;;;10.84;100.00;100224.38;6111670;23;20125;-60
2022/04/21 08:37:54;;;;;;;2.55;1.60;;;;;;;11.00;100.00;100250.66;6122879;23;20474;-67
2022/04/21 08:40:54;;;;;;;5.60;1.60;;;;;;;11.04;100.00;100262.13;6122924;23;20369;-61
2022/04/21 08:43:40;;;;;;;2.75;1.45;;;;;;;10.88;100.00;100250.81;6111919;23;20425;-59
2022/04/21 08:46:25;;;;;;;2.88;1.63;;;;;;;10.81;100.00;100257.13;6113230;23;20112;-59
2022/04/21 08:49:12;;;;;;;2.92;1.58;;;;;;;10.87;100.00;100264.09;6133906;23;20029;-61
2022/04/21 08:51:57;;;;;;;4.20;1.98;;;;;;;10.53;100.00;100241.59;6133865;23;20535;-61
2022/04/21 08:54:43;;;;;;;3.42;1.75;;;;;;;10.64;100.00;100272.38;6133674;23;20128;-61
2022/04/21 08:57:35;;;;;;;1.85;1.55;;;;;;;10.64;100.00;100280.31;6133342;23;20489;-60
2022/04/21 09:00:20;;;;;;;3.15;1.52;;;;;;;10.70;100.00;100277.59;6113087;23;20081;-71
2022/04/21 09:03:06;;;;;;;3.45;1.75;;;;;;;10.77;100.00;100274.00;6104071;23;20064;-60
2022/04/21 09:05:50;;;;;;;3.15;1.67;;;;;;;10.69;100.00;100251.09;6124686;23;20068;-59
2022/04/21 09:08:35;;;;;;;3.15;1.80;;;;;;;10.85;100.00;100290.69;6140186;23;20079;-61
2022/04/21 09:11:21;;;;;;;3.05;1.85;;;;;;;10.90;100.00;100294.16;6203580;23;20031;-59
2022/04/21 09:14:06;;;;;;;3.55;1.58;;;;;;;10.85;100.00;100296.00;6214553;23;20192;-60
2022/04/21 09:16:51;;;;;;;4.30;1.95;;;;;;;10.86;100.00;100296.84;6225889;23;20106;-60
2022/04/21 09:19:35;;;;;;;5.57;2.38;;;;;;;10.93;100.00;100309.16;6218140;23;20351;-58
2022/04/21 09:22:19;;;;;;;4.45;2.10;;;;;;;10.90;100.00;100307.41;6217590;23;20485;-59
2022/04/21 09:25:05;;;;;;;3.97;2.25;;;;;;;10.62;100.00;100275.94;6191136;23;20024;-67
2022/04/21 09:27:49;;;;;;;3.13;2.13;;;;;;;10.76;100.00;100317.31;6214578;23;20032;-58
2022/04/21 09:30:37;;;;;;;4.40;2.38;;;;;;;10.87;100.00;100311.88;6202379;23;20081;-60
2022/04/21 09:33:33;;;;;;;3.00;2.00;;;;;;;10.91;100.00;100309.16;6225925;23;20093;-58
2022/04/21 09:36:18;;;;;;;6.82;2.53;;;;;;;10.94;100.00;100316.19;6192172;23;20074;-61
2022/04/21 09:39:05;;;;;;;5.68;2.00;;;;;;;10.98;100.00;100318.81;6203463;23;20513;-60
2022/04/21 09:41:54;;;;;;;;;;;;;;;11.11;100.00;100325.69;6225076;23;20031;-59
2022/04/21 09:47:41;;;;;;;3.35;1.60;;;;;;;10.99;100.00;100312.59;6229859;23;20031;-59
2022/04/21 09:50:26;;;;;;;2.95;1.70;;;;;;;11.01;100.00;100325.84;6227247;23;20036;-57
2022/04/21 09:53:12;;;;;;;5.43;1.80;;;;;;;10.89;100.00;100295.06;6213511;23;20047;-56
2022/04/21 09:56:10;;;;;;;2.40;1.40;;;;;;;11.13;100.00;100326.56;6214530;23;20038;-59
2022/04/21 09:58:55;;;;;;;3.00;1.70;;;;;;;11.03;100.00;100318.75;6202154;23;20027;-56
2022/04/21 10:01:42;;;;;;;2.92;1.63;;;;;;;10.95;100.00;100315.31;6225318;23;20023;-58
2022/04/21 10:04:28;;;;;;;4.80;1.95;;;;;;;11.07;100.00;100345.22;6180967;23;20039;-57
2022/04/21 10:07:12;;;;;;;2.47;1.48;;;;;;;11.13;100.00;100334.53;6225042;23;20074;-59
2022/04/21 10:09:58;;;;;;;2.63;1.60;;;;;;;11.11;100.00;100346.94;6215131;23;20055;-57
2022/04/21 10:12:42;;;;;;;2.22;1.60;;;;;;;10.83;100.00;100296.88;6215141;23;20159;-59
2022/04/21 10:15:28;;;;;;;2.97;1.42;;;;;;;11.02;100.00;100351.47;6192114;23;20370;-57
2022/04/21 10:18:15;;;;;;;3.85;1.58;;;;;;;10.97;100.00;100355.97;6224749;23;20490;-59
2022/04/21 10:21:01;;;;;;;1.92;1.20;;;;;;;10.95;100.00;100355.13;6214617;23;20155;-58
2022/04/21 10:23:47;;;;;;;2.00;1.38;;;;;;;10.80;100.00;100348.19;6224329;23;20063;-58
2022/04/21 10:26:40;;;;;;;2.45;1.42;;;;;;;10.97;100.00;100372.78;6193263;23;20031;-63
2022/04/21 10:29:29;;;;;;;3.50;1.42;;;;;;;10.91;100.00;100366.69;6202917;23;20090;-60
2022/04/21 10:32:18;;;;;;;2.55;1.33;;;;;;;11.00;100.00;100369.22;6169131;23;20031;-64
2022/04/21 10:35:17;;;;;;;2.75;1.30;;;;;;;10.98;100.00;100355.06;6189615;23;20410;-60
2022/04/21 10:38:14;;;;;;;1.88;1.50;;;;;;;11.05;100.00;100386.84;6202509;23;20059;-58
2022/04/21 10:41:10;;;;;;;2.17;1.33;;;;;;;10.89;100.00;100361.38;6202586;23;20059;-58
2022/04/21 10:43:54;;;;;;;;;;;;;;;11.10;100.00;100392.97;6215570;23;20094;-58
2022/04/21 10:46:38;;;;;;;2.70;1.33;;;;;;;11.00;100.00;100399.25;6223980;23;19921;-58
2022/04/21 10:50:14;;;;;;;2.42;1.60;;;;;;;11.17;100.00;100399.06;6224394;23;20098;-55
2022/04/21 10:59:29;;;;;;;2.22;1.52;;;;;;;11.20;100.00;100401.69;6151656;23;20032;-59
2022/04/21 11:02:14;;;;;;;3.30;1.90;;;;;;;11.15;100.00;100384.94;6162088;23;20028;-57
2022/04/21 11:04:59;;;;;;;5.10;2.30;;;;;;;11.10;100.00;100403.56;6160154;23;20392;-58
2022/04/21 11:07:58;;;;;;;4.55;2.63;;;;;;;11.25;100.00;100418.44;6147360;23;20040;-66
2022/04/21 11:10:45;;;;;;;2.90;2.08;;;;;;;11.17;100.00;100428.25;6158134;23;20328;-60
2022/04/21 11:13:49;;;;;;;5.07;1.70;;;;;;;11.20;100.00;100428.22;6148221;23;20028;-59
2022/04/21 11:16:45;;;;;;;4.13;1.92;;;;;;;11.10;100.00;100426.56;6146045;23;20088;-57
2022/04/21 11:19:33;;;;;;;2.58;1.50;;;;;;;11.04;100.00;100437.28;6126416;23;20071;-68
2022/04/21 11:22:40;;;;;;;1.73;1.60;;;;;;;11.10;100.00;100435.44;6127335;23;20028;-59
2022/04/21 11:25:25;;;;;;;;;;;;;;;11.03;100.00;100441.69;6127835;23;20494;-57
2022/04/21 11:28:12;;;;;;;4.03;1.77;;;;;;;11.02;100.00;100436.41;6183531;23;20238;-63
2022/04/21 11:31:03;;;;;;;3.20;1.80;;;;;;;10.97;100.00;100439.13;6166426;23;20474;-58
2022/04/21 11:33:47;;;;;;;2.88;1.55;;;;;;;10.89;100.00;100440.97;6212780;23;20032;-59
2022/04/21 11:36:40;;;;;;;3.13;1.60;;;;;;;10.89;100.00;100445.41;6198175;23;20031;-60
2022/04/21 11:39:25;;;;;;;3.85;1.88;;;;;;;10.88;100.00;100441.84;6166775;23;20027;-61
2022/04/21 11:42:09;;;;;;;;;;;;;;;10.99;100.00;100441.75;6209074;23;20027;-58
2022/04/21 11:44:55;;;;;;;2.53;1.70;;;;;;;10.74;100.00;100417.25;6220255;23;20334;-60
2022/04/21 11:47:40;;;;;;;4.07;2.08;;;;;;;10.81;100.00;100439.28;6197128;23;20055;-59
2022/04/21 11:50:27;;;;;;;3.08;2.10;;;;;;;10.70;100.00;100420.84;6210279;23;20086;-58
2022/04/21 11:53:18;;;;;;;3.15;2.10;;;;;;;10.92;100.00;100451.53;6223064;23;20075;-59
2022/04/21 11:56:04;;;;;;;2.20;1.58;;;;;;;10.93;100.00;100447.13;6200028;23;20454;-59
2022/04/21 11:58:49;;;;;;;2.72;2.03;;;;;;;11.02;100.00;100441.69;6213876;23;20031;-61
2022/04/21 12:08:13;;;;;;;3.00;2.00;;;;;;;11.01;100.00;100450.56;6223329;23;20095;-62
2022/04/21 12:10:58;;;;;;;3.42;2.40;;;;;;;10.98;100.00;100469.16;6222560;23;20032;-58
2022/04/21 12:13:45;;;;;;;3.35;2.10;;;;;;;10.97;100.00;100454.16;6201810;23;20059;-61
2022/04/21 12:16:49;;;;;;;4.97;2.25;;;;;;;11.00;100.00;100454.13;6190727;23;20066;-60
2022/04/21 12:19:39;;;;;;;2.85;1.98;;;;;;;10.83;100.00;100437.47;6223345;23;20074;-59
2022/04/21 12:22:32;;;;;;;3.63;2.42;;;;;;;10.87;100.00;100460.44;6223321;23;20305;-60
2022/04/21 12:25:16;;;;;;;2.55;2.05;;;;;;;10.79;100.00;100464.94;6200115;23;20481;-61
2022/04/21 12:28:05;;;;;;;2.13;1.73;;;;;;;10.93;100.00;100461.28;6200298;23;20440;-60
2022/04/21 12:31:06;;;;;;;3.05;2.05;;;;;;;10.88;100.00;100468.38;6223946;23;20051;-59
2022/04/21 12:33:52;;;;;;;3.80;2.30;;;;;;;10.98;100.00;100464.75;6179164;23;20028;-60
2022/04/21 12:36:37;;;;;;;4.32;2.20;;;;;;;10.85;100.00;100436.59;6200419;23;20059;-61
2022/04/21 12:39:23;;;;;;;4.25;2.15;;;;;;;10.94;100.00;100467.44;6211371;23;20047;-60
2022/04/21 12:42:08;;;;;;;3.72;2.15;;;;;;;10.99;100.00;100470.94;6211571;23;20095;-60
2022/04/21 12:44:53;;;;;;;3.70;2.35;;;;;;;11.05;100.00;100476.19;6169136;23;20043;-59
2022/04/21 12:47:45;;;;;;;3.53;1.90;;;;;;;11.16;100.00;100484.91;6200851;23;20027;-60
2022/04/21 12:50:32;;;;;;;2.70;1.80;;;;;;;11.11;100.00;100481.44;6213157;23;20036;-60
2022/04/21 12:53:31;;;;;;;2.75;1.80;;;;;;;11.27;100.00;100477.72;6223945;23;20032;-61
2022/04/21 12:56:17;;;;;;;2.72;2.03;;;;;;;11.26;100.00;100476.81;6221509;23;20078;-59
2022/04/21 12:59:03;;;;;;;3.83;2.60;;;;;;;11.32;100.00;100474.06;6190009;23;20028;-61
2022/04/21 13:01:48;;;;;;;3.97;1.92;;;;;;;11.30;100.00;100467.03;6224273;23;20078;-60
2022/04/21 13:04:33;;;;;;;3.75;2.20;;;;;;;11.37;100.00;100468.72;6223698;23;20030;-61
2022/04/21 13:07:17;;;;;;;6.22;2.45;;;;;;;11.48;100.00;100485.41;6201880;23;20476;-59
2022/04/21 13:10:02;;;;;;;5.28;2.20;;;;;;;11.41;100.00;100484.63;6226152;23;20078;-60
2022/04/21 13:12:47;;;;;;;;;;;;;;;11.53;100.00;100479.16;6225699;23;20035;-63
2022/04/21 13:15:32;;;;;;;4.32;2.50;;;;;;;11.53;100.00;100475.59;6201732;23;19918;-69
2022/04/21 13:18:17;;;;;;;5.82;3.00;;;;;;;11.44;100.00;100452.69;6224878;23;20031;-64
2022/04/21 13:24:05;;;;;;;3.75;2.40;;;;;;;11.42;100.00;100459.81;6225005;23;20055;-61
2022/04/21 13:26:50;;;;;;;3.72;2.60;;;;;;;11.67;100.00;100485.19;6225380;23;20035;-60
2022/04/21 13:29:34;;;;;;;4.30;2.70;;;;;;;11.67;100.00;100485.19;6226216;23;20034;-61
2022/04/21 13:35:21;;;;;;;4.07;2.30;;;;;;;11.64;100.00;100498.53;6215735;23;20082;-59
2022/04/21 13:38:06;;;;;;;5.55;2.42;;;;;;;11.53;100.00;100494.19;6202777;23;20023;-61
2022/04/21 13:40:50;;;;;;;3.60;2.30;;;;;;;11.43;100.00;100500.53;6225858;23;20485;-60
2022/04/21 13:43:35;;;;;;;3.70;2.30;;;;;;;11.62;100.00;100488.78;6198731;23;20470;-62
2022/04/21 13:46:19;;;;;;;3.53;2.20;;;;;;;11.83;100.00;100501.81;6208499;23;20032;-60
2022/04/21 13:49:04;;;;;;;3.75;2.13;;;;;;;11.66;100.00;100475.47;6220793;23;20027;-59
2022/04/21 13:51:49;;;;;;;3.92;2.10;;;;;;;11.86;100.00;100507.06;6220821;23;20573;-60
2022/04/21 13:54:33;;;;;;;3.30;2.30;;;;;;;11.86;100.00;100505.31;6210601;23;20366;-60